This is the latest recevied weather packets stored in our database for station/object LU5DTF-1. If no packets are shown the sender has not sent any weather packets the latest 1 day(s).
| Time | Temp. | Humidity | Pressure | Rain* | Wind** | Luminosity | Snow |
|---|---|---|---|---|---|---|---|
| 1777991103 | 18.33° C | 62% | 1013.4 hPa | 0 mm | 1.34 m/s, 281° | - | - |
| 1777990803 | 18.33° C | 62% | 1013.4 hPa | 0 mm | 0.89 m/s, 295° | - | - |
| 1777990503 | 18.33° C | 62% | 1013.4 hPa | 0 mm | 0.45 m/s, 306° | - | - |
| 1777990203 | 18.33° C | 63% | 1013.2 hPa | 0 mm | 0.89 m/s, 303° | - | - |
| 1777989903 | 17.78° C | 63% | 1013.2 hPa | 0 mm | 0.89 m/s, 304° | - | - |
| 1777989603 | 17.78° C | 63% | 1013.3 hPa | 0 mm | 0.89 m/s, 305° | - | - |
| 1777989303 | 17.78° C | 63% | 1013.4 hPa | 0 mm | 1.34 m/s, 301° | - | - |
| 1777989003 | 17.78° C | 64% | 1013.4 hPa | 0 mm | 1.34 m/s, 300° | - | - |
| 1777988703 | 17.22° C | 64% | 1013.3 hPa | 0 mm | 1.34 m/s, 301° | - | - |
| 1777988403 | 17.22° C | 65% | 1013.2 hPa | 0 mm | 1.34 m/s, 306° | - | - |
| 1777988103 | 17.22° C | 67% | 1013.3 hPa | 0 mm | 0.89 m/s, 310° | - | - |
| 1777987803 | 17.22° C | 67% | 1013.2 hPa | 0 mm | 0.89 m/s, 315° | - | - |
| 1777987503 | 16.67° C | 68% | 1013.1 hPa | 0 mm | 0.45 m/s, 329° | - | - |
| 1777987203 | 16.67° C | 72% | 1013 hPa | 0 mm | 0 m/s | - | - |
| 1777986903 | 16.67° C | 73% | 1013.1 hPa | 0 mm | 0 m/s | - | - |
| 1777986603 | 16.67° C | 74% | 1013.1 hPa | 0 mm | 0 m/s | - | - |
| 1777986303 | 16.67° C | 74% | 1013.1 hPa | 0 mm | 0.45 m/s, 31° | - | - |
| 1777986003 | 16.67° C | 72% | 1012.9 hPa | 0 mm | 0.89 m/s, 49° | - | - |
| 1777985703 | 16.67° C | 72% | 1012.9 hPa | 0 mm | 0.89 m/s, 55° | - | - |
| 1777985403 | 16.67° C | 72% | 1013.1 hPa | 0 mm | 0.45 m/s, 36° | - | - |
| 1777985103 | 17.22° C | 65% | 1013 hPa | 0 mm | 0 m/s | - | - |
| 1777984803 | 17.22° C | 66% | 1013 hPa | 0 mm | 0 m/s | - | - |
| 1777984503 | 16.67° C | 66% | 1013 hPa | 0 mm | 0.45 m/s, 284° | - | - |
| 1777984203 | 16.67° C | 66% | 1013 hPa | 0 mm | 0.89 m/s, 276° | - | - |
| 1777983903 | 16.67° C | 66% | 1013.1 hPa | 0 mm | 0.89 m/s, 276° | - | - |
* Rain latest hour (hover to see other rain measurements)
** Current wind speed in m/s (hover to see current wind gust speed)